Time;durP1;ratioP1;P1;durP2;ratioP2;P2;SDS_P1;SDS_P2;PMS_P1;PMS_P2;Temp;Humidity;BMP_temperature;BMP_pressure;BME280_temperature;BME280_humidity;BME280_pressure;Samples;Min_cycle;Max_cycle;Signal;HPM_P1;HPM_P2
2023/03/02 00:00:40;;;;;;;8.37;7.57;;;;;;;0.05;74.04;101652.31;5046361;28;20211;-81
2023/03/02 00:03:07;;;;;;;8.80;7.93;;;;;;;0.04;74.89;101652.25;5051807;28;20302;-82
2023/03/02 00:05:34;;;;;;;9.10;8.20;;;;;;;0.01;74.57;101658.13;5051925;28;20227;-81
2023/03/02 00:08:01;;;;;;;8.60;7.80;;;;;;;-0.04;73.89;101657.03;5037344;28;20206;-81
2023/03/02 00:10:28;;;;;;;8.23;7.43;;;;;;;-0.02;74.33;101664.03;5032521;28;20217;-82
2023/03/02 00:12:56;;;;;;;8.47;7.60;;;;;;;0.02;73.94;101675.31;5031661;28;20256;-81
2023/03/02 00:15:22;;;;;;;8.63;7.83;;;;;;;0.01;74.25;101663.25;5032073;28;20224;-81
2023/03/02 00:17:48;;;;;;;7.70;7.00;;;;;;;0.08;74.03;101667.88;5031938;28;20256;-81
2023/03/02 00:20:15;;;;;;;8.57;7.77;;;;;;;0.08;73.47;101682.38;5032075;28;20267;-81
2023/03/02 00:22:43;;;;;;;9.27;8.27;;;;;;;0.02;72.76;101687.25;5031482;28;20283;-82
2023/03/02 00:25:11;;;;;;;7.73;6.93;;;;;;;-0.12;72.83;101718.31;5031628;28;20717;-82
2023/03/02 00:27:38;;;;;;;7.87;7.07;;;;;;;-0.07;72.69;101721.97;5031844;28;20214;-81
2023/03/02 00:30:09;;;;;;;10.23;7.40;;;;;;;0.00;73.12;101730.84;5031846;28;20210;-82
2023/03/02 00:32:35;;;;;;;8.23;7.43;;;;;;;0.03;72.80;101735.22;5033959;28;20794;-81
2023/03/02 00:35:01;;;;;;;8.73;7.83;;;;;;;0.10;72.61;101735.56;5035019;28;20236;-81
2023/03/02 00:37:28;;;;;;;8.27;7.47;;;;;;;0.06;72.52;101743.03;5035022;28;20572;-81
2023/03/02 00:39:54;;;;;;;8.23;7.43;;;;;;;0.09;72.93;101745.75;5035558;28;20210;-81
2023/03/02 00:42:21;;;;;;;8.67;7.23;;;;;;;0.07;73.34;101749.94;5035271;28;20351;-82
2023/03/02 00:44:47;;;;;;;9.50;8.57;;;;;;;-0.02;74.60;101743.59;5035629;28;20231;-81
2023/03/02 00:47:15;;;;;;;10.07;8.07;;;;;;;-0.04;74.30;101723.78;5035280;28;20205;-81
2023/03/02 00:49:41;;;;;;;9.57;8.67;;;;;;;-0.04;73.87;101709.28;5035456;28;20264;-82
2023/03/02 00:52:07;;;;;;;9.00;8.10;;;;;;;-0.04;74.25;101706.72;5035058;28;20207;-81
2023/03/02 00:54:33;;;;;;;9.30;8.43;;;;;;;-0.08;74.31;101715.09;5035168;28;20206;-82
2023/03/02 00:57:00;;;;;;;10.20;9.20;;;;;;;-0.18;75.29;101709.44;5035246;28;20208;-84
2023/03/02 00:59:26;;;;;;;9.80;8.80;;;;;;;-0.16;75.27;101688.16;5035480;28;20206;-81
2023/03/02 01:01:56;;;;;;;8.90;8.03;;;;;;;-0.14;74.65;101683.13;5035337;28;20209;-82
2023/03/02 01:04:28;;;;;;;9.27;8.30;;;;;;;-0.17;74.96;101681.31;5034680;28;20234;-82
2023/03/02 01:06:55;;;;;;;9.97;8.97;;;;;;;-0.19;74.83;101676.91;5035484;28;20234;-81
2023/03/02 01:09:21;;;;;;;8.97;8.07;;;;;;;-0.18;74.88;101665.81;5035351;28;20215;-81
2023/03/02 01:11:47;;;;;;;9.07;8.27;;;;;;;-0.21;75.38;101667.44;5035117;28;20211;-81
2023/03/02 01:14:14;;;;;;;8.67;7.77;;;;;;;-0.29;74.94;101662.78;5034688;28;20259;-79
2023/03/02 01:16:40;;;;;;;8.60;7.80;;;;;;;-0.29;75.90;101653.41;5033898;28;20696;-81
2023/03/02 01:19:07;;;;;;;9.10;8.27;;;;;;;-0.21;75.04;101651.19;5035388;28;20199;-81
2023/03/02 01:21:34;;;;;;;8.23;7.53;;;;;;;-0.18;74.90;101647.88;5035192;28;20202;-81
2023/03/02 01:24:01;;;;;;;8.40;7.60;;;;;;;-0.25;75.35;101652.72;5035171;28;20491;-79
2023/03/02 01:26:27;;;;;;;8.50;7.47;;;;;;;-0.18;75.77;101643.59;5035215;28;20285;-82
2023/03/02 01:28:54;;;;;;;7.43;6.80;;;;;;;-0.21;74.84;101643.47;5034879;28;20215;-82
2023/03/02 01:31:20;;;;;;;7.57;6.90;;;;;;;-0.16;74.35;101643.69;5034314;28;20622;-81
2023/03/02 01:33:47;;;;;;;8.00;7.00;;;;;;;-0.11;74.67;101657.59;5034581;28;20727;-81
2023/03/02 01:36:14;;;;;;;7.20;6.47;;;;;;;-0.14;74.71;101662.59;5033904;28;20238;-81
2023/03/02 01:38:41;;;;;;;9.10;8.20;;;;;;;-0.14;73.94;101666.06;5034666;28;20202;-82
2023/03/02 01:41:08;;;;;;;8.00;7.30;;;;;;;-0.14;73.86;101670.28;5034679;28;20261;-81
2023/03/02 01:43:34;;;;;;;8.20;7.20;;;;;;;-0.10;74.06;101673.06;5034047;28;20281;-82
2023/03/02 01:46:02;;;;;;;7.70;6.97;;;;;;;-0.09;73.05;101677.38;5034430;28;20228;-83
2023/03/02 01:48:33;;;;;;;7.67;6.97;;;;;;;-0.06;73.58;101689.47;5033645;28;20592;-82
2023/03/02 01:51:01;;;;;;;8.63;7.83;;;;;;;-0.21;72.09;101690.53;5026946;28;20214;-81
2023/03/02 01:53:31;;;;;;;8.33;7.53;;;;;;;-0.35;73.29;101708.69;5034779;28;20204;-81
2023/03/02 01:56:00;;;;;;;8.17;7.33;;;;;;;-0.37;72.88;101706.06;5034181;28;20226;-81
2023/03/02 01:58:28;;;;;;;11.13;8.20;;;;;;;-0.67;72.35;101716.63;5034388;28;20207;-80
2023/03/02 02:00:57;;;;;;;8.80;7.90;;;;;;;-0.92;73.50;101724.81;5034557;28;20266;-81
2023/03/02 02:03:26;;;;;;;8.43;7.63;;;;;;;-1.00;73.63;101710.78;5034829;28;20293;-80
2023/03/02 02:06:03;;;;;;;9.50;8.60;;;;;;;-1.29;76.19;101705.13;5034539;28;20301;-81
2023/03/02 02:08:30;;;;;;;8.73;7.83;;;;;;;-1.44;77.06;101659.13;5034543;28;20254;-82
2023/03/02 02:10:56;;;;;;;10.97;8.13;;;;;;;-1.57;78.32;101614.91;5034952;28;20616;-81
2023/03/02 02:13:24;;;;;;;10.47;9.43;;;;;;;-1.58;78.91;101570.50;5035279;28;20257;-81
2023/03/02 02:15:51;;;;;;;12.90;8.13;;;;;;;-1.43;78.83;101539.63;5035284;28;20234;-81
2023/03/02 02:18:18;;;;;;;10.30;8.80;;;;;;;-1.27;78.42;101520.75;5035860;28;20208;-81
2023/03/02 02:20:54;;;;;;;10.47;7.97;;;;;;;-1.12;78.23;101521.47;5035564;28;20210;-82
2023/03/02 02:23:27;;;;;;;9.20;8.30;;;;;;;-1.07;76.50;101519.09;5035383;28;20228;-82
2023/03/02 02:26:07;;;;;;;8.93;7.70;;;;;;;-0.94;76.10;101533.38;5035576;28;20226;-81
2023/03/02 02:28:38;;;;;;;9.27;7.63;;;;;;;-0.88;75.94;101547.31;5035797;28;20205;-82
2023/03/02 02:31:10;;;;;;;10.10;7.97;;;;;;;-0.82;76.04;101559.53;5036024;28;20203;-81
2023/03/02 02:33:39;;;;;;;9.13;8.07;;;;;;;-0.80;75.05;101574.19;5035555;28;20629;-81
2023/03/02 02:36:09;;;;;;;9.13;8.03;;;;;;;-0.86;75.01;101579.03;5035224;28;20235;-81
2023/03/02 02:38:37;;;;;;;9.60;8.07;;;;;;;-0.88;74.25;101601.16;5036129;28;20194;-81
2023/03/02 02:41:08;;;;;;;8.77;7.80;;;;;;;-0.76;74.39;101617.91;5035655;28;20206;-80
2023/03/02 02:43:35;;;;;;;9.13;8.23;;;;;;;-0.86;73.95;101630.28;5035828;28;20231;-83
2023/03/02 02:46:02;;;;;;;8.40;7.30;;;;;;;-0.77;74.19;101634.06;5035599;28;20649;-81
2023/03/02 02:48:32;;;;;;;8.10;7.27;;;;;;;-0.73;74.08;101635.97;5035692;28;20222;-81
2023/03/02 02:51:00;;;;;;;8.97;8.07;;;;;;;-0.83;73.85;101648.38;5036043;28;20779;-82
2023/03/02 02:53:42;;;;;;;8.60;7.90;;;;;;;-0.75;74.16;101647.84;5035439;28;20333;-82
2023/03/02 02:56:11;;;;;;;9.53;8.23;;;;;;;-0.70;74.62;101656.63;5035174;28;20227;-82
2023/03/02 02:58:43;;;;;;;8.13;7.33;;;;;;;-0.76;74.91;101646.97;5036437;28;20206;-81
2023/03/02 03:01:13;;;;;;;9.80;8.77;;;;;;;-0.92;75.16;101655.63;5036226;28;20285;-82
2023/03/02 03:03:46;;;;;;;8.40;7.60;;;;;;;-0.98;76.20;101641.66;5036154;28;20316;-82
2023/03/02 03:06:17;;;;;;;8.90;8.10;;;;;;;-0.93;76.07;101623.13;5036039;28;20229;-83
2023/03/02 03:08:56;;;;;;;7.50;6.70;;;;;;;-1.04;76.65;101614.94;5035734;28;20244;-83
2023/03/02 03:11:26;;;;;;;8.17;7.37;;;;;;;-1.01;76.86;101597.16;5035218;28;20681;-82
2023/03/02 03:13:58;;;;;;;8.77;7.80;;;;;;;-1.05;77.49;101582.44;5034081;28;20199;-82
2023/03/02 03:16:28;;;;;;;7.53;6.83;;;;;;;-1.04;77.37;101565.38;5035683;28;20282;-81
2023/03/02 03:18:57;;;;;;;7.50;6.80;;;;;;;-1.05;78.10;101555.91;5035708;28;20290;-83
2023/03/02 03:21:23;;;;;;;8.77;7.87;;;;;;;-1.04;77.67;101538.06;5036056;28;20214;-81
2023/03/02 03:23:50;;;;;;;7.70;7.10;;;;;;;-1.00;77.55;101531.38;5036719;28;20248;-82
2023/03/02 03:26:16;;;;;;;7.63;6.93;;;;;;;-0.93;77.48;101537.66;5036214;28;20230;-83
2023/03/02 03:28:44;;;;;;;8.30;7.03;;;;;;;-0.99;77.46;101533.16;5036466;28;20728;-82
2023/03/02 03:31:10;;;;;;;8.57;7.60;;;;;;;-0.98;77.26;101531.47;5036038;28;20208;-82
2023/03/02 03:33:37;;;;;;;7.77;7.07;;;;;;;-0.97;76.73;101538.34;5037512;28;20672;-83
2023/03/02 03:36:04;;;;;;;9.30;7.93;;;;;;;-0.99;76.81;101543.41;5045223;28;20280;-82
2023/03/02 03:38:30;;;;;;;10.17;8.17;;;;;;;-1.00;76.88;101539.06;5046101;28;20265;-81
2023/03/02 03:40:57;;;;;;;8.57;7.77;;;;;;;-1.06;77.04;101538.81;5045384;28;20234;-82
2023/03/02 03:43:24;;;;;;;8.27;7.47;;;;;;;-1.05;77.42;101531.19;5044146;28;20222;-82
2023/03/02 03:45:52;;;;;;;8.57;7.73;;;;;;;-0.97;76.76;101534.09;5042155;28;20259;-81
2023/03/02 03:48:18;;;;;;;9.63;7.43;;;;;;;-1.07;77.53;101537.94;5041989;28;20203;-83
2023/03/02 03:50:45;;;;;;;9.33;8.33;;;;;;;-1.02;77.54;101535.56;5041309;28;20222;-81
2023/03/02 03:53:11;;;;;;;10.13;8.30;;;;;;;-0.97;77.26;101531.56;5034813;28;20269;-81
2023/03/02 03:55:37;;;;;;;9.10;8.13;;;;;;;-0.94;77.25;101530.81;5032910;28;20233;-81
2023/03/02 03:58:04;;;;;;;10.00;8.27;;;;;;;-0.95;77.41;101532.50;5032492;28;20676;-82
2023/03/02 04:00:30;;;;;;;9.80;8.80;;;;;;;-0.82;77.22;101528.78;5032768;28;20211;-83
2023/03/02 04:02:58;;;;;;;14.50;8.83;;;;;;;-0.84;77.56;101538.09;5032660;28;20211;-81
2023/03/02 04:05:24;;;;;;;8.90;8.00;;;;;;;-0.90;77.57;101543.81;5031894;28;20230;-81
2023/03/02 04:07:51;;;;;;;10.03;8.70;;;;;;;-0.83;77.06;101545.00;5035447;28;20207;-82
2023/03/02 04:10:17;;;;;;;8.83;8.03;;;;;;;-0.83;76.68;101555.25;5037049;28;20213;-81
2023/03/02 04:12:44;;;;;;;14.00;8.20;;;;;;;-0.85;76.45;101555.16;5036850;28;20264;-81
2023/03/02 04:15:14;;;;;;;9.33;8.43;;;;;;;-0.85;76.41;101567.09;5036169;28;20620;-81
2023/03/02 04:17:42;;;;;;;9.10;8.20;;;;;;;-0.86;76.43;101568.78;5036309;28;20215;-81
2023/03/02 04:20:15;;;;;;;9.37;8.07;;;;;;;-0.87;76.35;101578.97;5036392;28;20214;-81
2023/03/02 04:22:42;;;;;;;8.83;8.10;;;;;;;-0.93;76.61;101579.56;5036475;28;20557;-80
2023/03/02 04:25:09;;;;;;;8.50;7.70;;;;;;;-1.11;77.04;101588.94;5036041;28;20288;-81
2023/03/02 04:27:36;;;;;;;9.40;8.50;;;;;;;-1.23;77.72;101572.22;5036449;28;20229;-81
2023/03/02 04:30:03;;;;;;;10.27;8.13;;;;;;;-1.22;78.34;101561.13;5036311;28;20651;-81
2023/03/02 04:32:29;;;;;;;9.17;8.27;;;;;;;-1.12;78.00;101547.06;5036089;28;20211;-81
2023/03/02 04:34:55;;;;;;;9.67;8.47;;;;;;;-1.08;77.63;101545.53;5036014;28;20233;-81
2023/03/02 04:37:23;;;;;;;11.10;8.93;;;;;;;-1.09;77.55;101551.47;5036479;28;20213;-81
2023/03/02 04:39:51;;;;;;;10.30;9.27;;;;;;;-1.17;78.23;101552.78;5036318;28;20203;-81
2023/03/02 04:42:18;;;;;;;13.03;10.47;;;;;;;-1.25;79.56;101530.28;5035394;28;20285;-81
2023/03/02 04:44:44;;;;;;;11.97;10.53;;;;;;;-1.24;80.16;101505.53;5035714;28;20231;-81
2023/03/02 04:47:10;;;;;;;12.67;10.97;;;;;;;-1.21;80.08;101490.28;5036106;28;20206;-81
2023/03/02 04:49:37;;;;;;;11.87;10.67;;;;;;;-1.25;80.23;101483.28;5036298;28;20203;-80
2023/03/02 04:52:03;;;;;;;17.70;13.80;;;;;;;-1.22;81.47;101468.06;5036112;28;20208;-81
2023/03/02 04:54:31;;;;;;;20.00;13.30;;;;;;;-1.19;81.82;101437.44;5036301;28;20580;-81
2023/03/02 04:56:58;;;;;;;17.97;13.83;;;;;;;-1.22;82.76;101417.69;5035693;28;20454;-81
2023/03/02 04:59:27;;;;;;;19.93;14.47;;;;;;;-1.18;83.68;101387.97;5036263;28;20202;-81
2023/03/02 05:01:56;;;;;;;16.90;14.40;;;;;;;-1.18;84.53;101343.56;5035612;28;20576;-80
2023/03/02 05:04:22;;;;;;;21.30;14.97;;;;;;;-1.23;85.55;101327.97;5035896;28;20282;-80
2023/03/02 05:06:49;;;;;;;22.67;15.60;;;;;;;-1.22;86.60;101297.31;5033296;28;20200;-81
2023/03/02 05:09:16;;;;;;;18.13;15.60;;;;;;;-1.20;86.66;101275.19;5044101;28;20202;-80
2023/03/02 05:11:44;;;;;;;19.03;15.57;;;;;;;-1.15;87.19;101246.34;5035796;28;20211;-81
2023/03/02 05:14:12;;;;;;;22.87;16.30;;;;;;;-1.16;88.22;101222.41;5035151;28;20618;-81
2023/03/02 05:16:41;;;;;;;21.87;16.83;;;;;;;-1.11;88.27;101212.34;5035962;28;20231;-82
2023/03/02 05:19:10;;;;;;;22.53;17.13;;;;;;;-1.08;88.77;101199.66;5033925;28;20203;-83
2023/03/02 05:21:36;;;;;;;24.80;17.83;;;;;;;-1.09;89.18;101179.97;5035653;28;20210;-82
2023/03/02 05:24:03;;;;;;;22.07;17.30;;;;;;;-1.04;89.91;101166.53;5035203;28;20272;-80
2023/03/02 05:26:29;;;;;;;24.53;16.80;;;;;;;-1.02;90.16;101158.91;5034871;28;20246;-82
2023/03/02 05:28:57;;;;;;;17.57;15.70;;;;;;;-1.03;90.40;101141.78;5035545;28;20208;-81
2023/03/02 05:31:27;;;;;;;21.80;15.83;;;;;;;-1.00;90.92;101140.22;5035460;28;20241;-81
2023/03/02 05:33:54;;;;;;;20.10;16.03;;;;;;;-0.97;90.70;101133.47;5035821;28;20210;-81
2023/03/02 05:36:20;;;;;;;20.17;15.93;;;;;;;-0.94;91.31;101139.59;5058650;22;20253;-80
2023/03/02 05:38:46;;;;;;;24.17;16.87;;;;;;;-0.98;91.73;101127.47;5035451;28;20208;-81
2023/03/02 05:41:13;;;;;;;20.60;16.43;;;;;;;-0.93;92.47;101110.59;5034632;28;20269;-80
2023/03/02 05:43:40;;;;;;;18.77;16.10;;;;;;;-0.87;92.38;101110.84;5035154;28;20208;-81
2023/03/02 05:46:07;;;;;;;24.07;16.03;;;;;;;-0.84;92.61;101112.63;5034582;28;20284;-80
2023/03/02 05:48:34;;;;;;;21.73;17.03;;;;;;;-0.83;93.28;101107.56;5034598;28;20627;-81
2023/03/02 05:51:00;;;;;;;28.43;17.53;;;;;;;-0.78;93.58;101106.88;5037065;28;20203;-80
2023/03/02 05:53:27;;;;;;;24.20;16.97;;;;;;;-0.73;93.68;101108.81;5054483;28;20264;-81
2023/03/02 05:55:53;;;;;;;20.93;16.33;;;;;;;-0.75;93.53;101110.44;5054318;28;20223;-80
2023/03/02 05:58:20;;;;;;;20.97;15.67;;;;;;;-0.70;93.32;101118.28;5054560;28;20622;-80
2023/03/02 06:00:48;;;;;;;22.00;16.67;;;;;;;-0.68;93.23;101130.34;5055027;28;20207;-80
2023/03/02 06:03:16;;;;;;;18.60;15.90;;;;;;;-0.66;92.99;101138.09;5054435;28;20626;-80
2023/03/02 06:05:43;;;;;;;18.13;16.23;;;;;;;-0.66;92.98;101156.03;5054231;28;20246;-80
2023/03/02 06:08:10;;;;;;;22.43;16.87;;;;;;;-0.66;93.21;101177.41;5054061;28;20205;-80
2023/03/02 06:10:36;;;;;;;22.73;16.30;;;;;;;-0.67;93.57;101175.69;5054371;28;20207;-80
2023/03/02 06:13:03;;;;;;;27.77;18.53;;;;;;;-0.71;94.28;101170.38;5054074;28;20207;-81
2023/03/02 06:15:29;;;;;;;24.17;18.27;;;;;;;-0.67;94.53;101156.88;5054489;28;20250;-80
2023/03/02 06:17:56;;;;;;;22.30;16.10;;;;;;;-0.63;94.46;101172.41;5054409;28;20674;-81
2023/03/02 06:20:24;;;;;;;19.10;16.93;;;;;;;-0.63;94.40;101177.53;5045524;28;20215;-80
2023/03/02 06:22:50;;;;;;;23.97;17.17;;;;;;;-0.59;94.15;101186.22;5053813;28;20207;-80
2023/03/02 06:25:19;;;;;;;33.00;18.70;;;;;;;-0.65;94.88;101180.88;5053931;28;20235;-80
2023/03/02 06:27:46;;;;;;;28.43;17.83;;;;;;;-0.57;94.97;101184.59;5054065;28;20229;-81
2023/03/02 06:30:15;;;;;;;25.33;16.83;;;;;;;-0.52;95.40;101187.34;5053967;28;20249;-82
2023/03/02 06:32:42;;;;;;;22.27;16.77;;;;;;;-0.50;95.05;101191.69;5053024;28;20203;-81
2023/03/02 06:35:10;;;;;;;20.90;17.30;;;;;;;-0.47;95.21;101196.94;5031593;28;20232;-82
2023/03/02 06:37:38;;;;;;;25.10;18.43;;;;;;;-0.44;95.15;101193.63;5022929;28;20230;-81
2023/03/02 06:40:08;;;;;;;27.20;19.23;;;;;;;-0.41;95.00;101199.75;5024327;28;20229;-81
2023/03/02 06:42:35;;;;;;;25.77;18.33;;;;;;;-0.38;95.32;101210.94;5022612;28;20206;-81
2023/03/02 06:45:02;;;;;;;28.17;17.50;;;;;;;-0.36;94.89;101206.75;5021483;28;20222;-81
2023/03/02 06:47:28;;;;;;;25.07;17.10;;;;;;;-0.35;95.81;101217.06;5021603;28;20251;-81
2023/03/02 06:49:55;;;;;;;32.10;19.30;;;;;;;-0.36;95.48;101220.44;5025093;28;20205;-81
2023/03/02 06:52:21;;;;;;;25.27;18.43;;;;;;;-0.33;95.55;101223.13;5032784;28;20684;-80
2023/03/02 06:54:49;;;;;;;34.47;19.80;;;;;;;-0.37;95.10;101234.09;5021503;28;20206;-81
2023/03/02 06:57:15;;;;;;;25.40;18.00;;;;;;;-0.40;95.79;101239.09;5017571;28;20233;-80
2023/03/02 06:59:42;;;;;;;38.27;24.00;;;;;;;-0.36;95.21;101245.22;5015541;28;20206;-81
2023/03/02 07:02:10;;;;;;;30.77;19.47;;;;;;;-0.37;95.77;101246.03;5020241;28;20203;-83
2023/03/02 07:04:36;;;;;;;23.40;17.43;;;;;;;-0.42;96.60;101233.03;5017595;28;20267;-83
2023/03/02 07:07:03;;;;;;;25.63;18.23;;;;;;;-0.36;95.90;101225.56;5018121;28;20287;-82
2023/03/02 07:09:32;;;;;;;35.47;19.57;;;;;;;-0.33;96.00;101225.69;5018500;28;20203;-83
2023/03/02 07:12:00;;;;;;;28.27;18.63;;;;;;;-0.31;97.00;101230.88;5031931;28;20672;-83
2023/03/02 07:14:27;;;;;;;30.67;19.50;;;;;;;-0.30;97.25;101218.09;5037855;28;20254;-83
2023/03/02 07:16:56;;;;;;;23.60;17.50;;;;;;;-0.33;97.18;101215.44;5038078;28;20226;-83
2023/03/02 07:19:22;;;;;;;24.73;16.83;;;;;;;-0.34;97.83;101211.09;5037452;28;20211;-83
2023/03/02 07:21:48;;;;;;;32.57;17.77;;;;;;;-0.28;97.92;101210.47;5049349;28;20201;-83
2023/03/02 07:24:15;;;;;;;25.03;17.10;;;;;;;-0.22;98.48;101214.16;5042030;28;20206;-81
2023/03/02 07:26:41;;;;;;;22.87;16.50;;;;;;;-0.16;97.55;101226.31;5037227;28;20253;-82
2023/03/02 07:29:09;;;;;;;23.37;17.13;;;;;;;-0.17;96.97;101229.72;5037970;28;20207;-83
2023/03/02 07:31:35;;;;;;;36.60;18.53;;;;;;;-0.25;98.03;101223.41;5033588;28;20257;-83
2023/03/02 07:34:01;;;;;;;26.87;18.53;;;;;;;-0.23;98.05;101222.66;5034202;28;20267;-83
2023/03/02 07:36:28;;;;;;;31.43;18.27;;;;;;;-0.22;97.91;101226.06;5034084;28;20278;-81
2023/03/02 07:38:55;;;;;;;26.57;17.70;;;;;;;-0.25;98.23;101225.97;5026353;28;20204;-81
2023/03/02 07:41:21;;;;;;;34.30;19.30;;;;;;;-0.27;97.78;101225.91;5027538;28;20207;-81
2023/03/02 07:43:48;;;;;;;29.60;17.80;;;;;;;-0.27;98.67;101219.91;5031331;28;20261;-82
2023/03/02 07:46:15;;;;;;;28.50;16.70;;;;;;;-0.24;98.93;101212.31;5028046;28;20226;-81
2023/03/02 07:48:42;;;;;;;32.03;23.05;;;;;;;-0.19;99.43;101215.94;5027275;28;20449;-81
2023/03/02 07:51:08;;;;;;;29.73;21.03;;;;;;;-0.15;99.94;101207.53;5045157;28;20233;-82
2023/03/02 07:53:34;;;;;;;26.80;18.80;;;;;;;-0.05;99.81;101204.50;5059525;28;20285;-82
2023/03/02 07:56:06;;;;;;;40.67;25.07;;;;;;;0.01;99.64;101205.53;5040023;28;20269;-80
2023/03/02 07:58:32;;;;;;;34.40;23.53;;;;;;;0.04;99.19;101218.47;5029540;28;20209;-82
2023/03/02 08:00:58;;;;;;;24.90;19.27;;;;;;;0.07;98.74;101228.88;5023374;28;20212;-82
2023/03/02 08:03:26;;;;;;;27.00;16.50;;;;;;;0.14;97.85;101246.22;5027728;28;20740;-83
2023/03/02 08:05:52;;;;;;;24.77;17.73;;;;;;;0.13;97.10;101271.03;5029184;28;20764;-82
2023/03/02 08:08:19;;;;;;;20.73;17.13;;;;;;;0.15;97.08;101279.66;5027342;28;20259;-82
2023/03/02 08:10:45;;;;;;;27.90;18.70;;;;;;;0.14;97.06;101283.06;5027662;28;20203;-81
2023/03/02 08:13:11;;;;;;;27.60;18.60;;;;;;;0.21;97.51;101280.72;5029102;28;20223;-83
2023/03/02 08:15:38;;;;;;;29.03;18.80;;;;;;;0.24;97.53;101291.06;5026375;28;20215;-82
2023/03/02 08:18:04;;;;;;;22.07;17.47;;;;;;;0.25;97.19;101301.41;5018652;28;20651;-84
2023/03/02 08:20:32;;;;;;;20.77;16.80;;;;;;;0.29;96.75;101312.69;5037356;28;20259;-83
2023/03/02 08:22:58;;;;;;;23.93;17.00;;;;;;;0.27;97.13;101309.19;5056670;28;20247;-84
2023/03/02 08:25:24;;;;;;;25.45;22.67;;;;;;;0.41;97.27;101320.81;5028412;28;20948;-83
2023/03/02 08:27:51;;;;;;;21.90;18.70;;;;;;;0.51;96.91;101327.16;5028512;28;20202;-83
2023/03/02 08:30:17;;;;;;;26.63;18.17;;;;;;;0.51;95.99;101332.31;5029423;28;20200;-82
2023/03/02 08:32:44;;;;;;;23.40;18.00;;;;;;;0.54;96.18;101345.28;5026591;28;20579;-83
2023/03/02 08:35:11;;;;;;;26.17;17.73;;;;;;;0.59;95.60;101357.47;5030203;28;20640;-80
2023/03/02 08:37:39;;;;;;;23.63;16.80;;;;;;;0.61;95.69;101370.34;5040821;28;20210;-82
2023/03/02 08:40:07;;;;;;;22.00;17.40;;;;;;;0.58;95.10;101377.97;5030420;28;20199;-82
2023/03/02 08:42:33;;;;;;;22.77;18.43;;;;;;;0.52;94.88;101391.44;5028797;28;20541;-82
2023/03/02 08:44:59;;;;;;;21.20;16.70;;;;;;;0.51;94.62;101388.81;5036729;28;20254;-84
2023/03/02 08:47:27;;;;;;;25.30;17.53;;;;;;;0.50;94.82;101394.78;5039827;28;20254;-83
2023/03/02 08:49:53;;;;;;;24.70;18.70;;;;;;;0.39;95.73;101387.53;5040627;28;20214;-82
2023/03/02 08:52:19;;;;;;;25.50;18.47;;;;;;;0.46;96.33;101372.38;5059798;28;20207;-82
2023/03/02 08:54:47;;;;;;;25.33;17.70;;;;;;;0.47;96.36;101369.84;5058814;28;20204;-83
2023/03/02 08:57:13;;;;;;;25.77;18.30;;;;;;;0.47;96.87;101362.13;5060104;28;20585;-83
2023/03/02 08:59:40;;;;;;;24.53;18.20;;;;;;;0.48;97.75;101345.91;5059702;28;20256;-83
2023/03/02 09:02:07;;;;;;;23.60;17.10;;;;;;;0.52;98.30;101324.66;5030016;28;20208;-84
2023/03/02 09:04:34;;;;;;;23.00;17.93;;;;;;;0.63;97.69;101319.03;5027039;28;20199;-80
2023/03/02 09:07:01;;;;;;;25.57;16.60;;;;;;;0.66;96.73;101332.00;5024737;28;20219;-82
2023/03/02 09:09:27;;;;;;;22.83;16.87;;;;;;;0.68;95.29;101362.06;5026153;28;20208;-80
2023/03/02 09:11:55;;;;;;;22.37;17.33;;;;;;;0.68;96.04;101364.63;5023999;28;20204;-81
2023/03/02 09:14:21;;;;;;;24.70;17.23;;;;;;;0.73;95.35;101373.41;5025400;28;20628;-82
2023/03/02 09:16:48;;;;;;;17.93;15.43;;;;;;;0.74;96.01;101381.97;5027167;28;20231;-81
2023/03/02 09:19:14;;;;;;;24.20;17.03;;;;;;;0.78;95.44;101384.69;5026253;28;20211;-81
2023/03/02 09:21:40;;;;;;;21.30;16.80;;;;;;;0.80;95.74;101377.03;5031040;28;20206;-80
2023/03/02 09:24:07;;;;;;;25.10;17.37;;;;;;;0.82;96.49;101371.97;5035449;28;20237;-81
2023/03/02 09:26:34;;;;;;;26.40;18.57;;;;;;;0.84;96.68;101367.75;5032738;28;20235;-81
2023/03/02 09:29:02;;;;;;;24.37;17.47;;;;;;;0.88;96.16;101367.91;5050944;28;20219;-82
2023/03/02 09:31:28;;;;;;;20.00;16.13;;;;;;;0.91;95.40;101387.69;5050437;28;20267;-83
2023/03/02 09:33:55;;;;;;;21.10;16.23;;;;;;;0.90;95.08;101396.25;5053802;28;20207;-81
2023/03/02 09:36:24;;;;;;;25.43;18.10;;;;;;;0.89;95.37;101408.22;5053543;28;20233;-81
2023/03/02 09:38:51;;;;;;;22.20;17.33;;;;;;;0.92;95.11;101413.47;5053518;28;20254;-80
2023/03/02 09:41:37;;;;;;;22.37;16.23;;;;;;;0.91;95.14;101419.44;5053283;28;20206;-80
2023/03/02 09:44:17;;;;;;;24.77;17.50;;;;;;;0.94;94.98;101418.66;5053414;28;20203;-81
2023/03/02 09:46:47;;;;;;;21.30;16.50;;;;;;;0.97;94.51;101423.91;5053286;28;20255;-81
2023/03/02 09:49:27;;;;;;;21.50;16.50;;;;;;;0.94;94.54;101421.22;5052911;28;20201;-81
2023/03/02 09:52:05;;;;;;;20.70;16.40;;;;;;;0.98;95.01;101415.38;5053527;28;20255;-81
2023/03/02 09:54:32;;;;;;;20.60;17.43;;;;;;;0.98;94.80;101418.81;5053646;28;20257;-81
2023/03/02 09:56:59;;;;;;;22.80;16.70;;;;;;;1.00;95.01;101426.59;5053579;28;20271;-80
2023/03/02 09:59:29;;;;;;;21.93;16.47;;;;;;;0.97;95.08;101424.78;5052945;28;20258;-81
2023/03/02 10:02:01;;;;;;;24.00;17.40;;;;;;;0.93;95.35;101430.66;5051174;28;20202;-82
2023/03/02 10:04:29;;;;;;;21.30;17.43;;;;;;;0.88;95.52;101423.59;5052920;28;20200;-81
2023/03/02 10:07:01;;;;;;;24.23;17.90;;;;;;;0.92;95.51;101404.88;5052977;28;20235;-81
2023/03/02 10:09:27;;;;;;;26.00;19.13;;;;;;;0.94;96.41;101401.53;5053018;28;20385;-81
2023/03/02 10:12:15;;;;;;;24.23;16.77;;;;;;;1.02;96.42;101383.81;5051785;28;20202;-82
2023/03/02 10:14:47;;;;;;;24.67;17.07;;;;;;;1.09;97.19;101383.22;5047570;28;20260;-82
2023/03/02 10:17:39;;;;;;;23.40;17.83;;;;;;;1.19;96.53;101380.16;5053689;28;20204;-82
2023/03/02 10:20:14;;;;;;;23.90;16.83;;;;;;;1.28;96.27;101392.44;5020220;28;20266;-81
2023/03/02 10:22:46;;;;;;;22.93;17.10;;;;;;;1.35;95.70;101388.38;5052257;28;20206;-81
2023/03/02 10:25:24;;;;;;;23.50;17.57;;;;;;;1.38;96.55;101373.03;5052561;28;20231;-82
2023/03/02 10:27:53;;;;;;;23.50;18.57;;;;;;;1.44;95.19;101388.69;5021449;28;20236;-82
2023/03/02 10:30:29;;;;;;;23.00;17.33;;;;;;;1.49;94.46;101400.00;5052430;28;20203;-81
2023/03/02 10:32:59;;;;;;;21.93;17.23;;;;;;;1.58;93.57;101417.44;5045361;28;20289;-81
2023/03/02 10:35:28;;;;;;;22.83;17.37;;;;;;;1.58;93.16;101438.91;5052302;28;20718;-81
2023/03/02 10:37:59;;;;;;;22.73;17.83;;;;;;;1.55;93.13;101458.53;5037169;28;20679;-82
2023/03/02 10:40:41;;;;;;;24.57;17.47;;;;;;;1.54;92.41;101470.50;5052474;28;20204;-81
2023/03/02 10:43:14;;;;;;;19.53;16.77;;;;;;;1.56;92.04;101478.28;5046623;28;20210;-82
2023/03/02 10:45:42;;;;;;;21.80;17.60;;;;;;;1.55;92.35;101479.97;5051559;28;20232;-82
2023/03/02 10:48:12;;;;;;;23.97;17.43;;;;;;;1.56;92.66;101492.00;5052338;28;20275;-83
2023/03/02 10:50:39;;;;;;;24.00;17.30;;;;;;;1.54;92.30;101490.22;5051251;28;20852;-81
2023/03/02 10:53:07;;;;;;;28.87;20.00;;;;;;;1.58;92.46;101486.91;5043202;28;20280;-81
2023/03/02 10:55:34;;;;;;;29.60;19.37;;;;;;;1.58;91.57;101492.94;5048696;28;20253;-80
2023/03/02 10:58:03;;;;;;;29.20;17.80;;;;;;;1.58;91.87;101489.50;5032262;28;20259;-80
2023/03/02 11:00:31;;;;;;;29.70;19.83;;;;;;;1.57;92.23;101483.47;5030953;28;20238;-80
2023/03/02 11:03:01;;;;;;;35.13;21.30;;;;;;;1.62;92.34;101473.34;5032977;28;20211;-79
2023/03/02 11:05:31;;;;;;;35.43;21.30;;;;;;;1.68;92.12;101468.38;5028177;28;20280;-80
2023/03/02 11:07:59;;;;;;;30.10;20.97;;;;;;;1.65;92.73;101470.00;5048933;28;20260;-81
2023/03/02 11:10:30;;;;;;;31.40;19.70;;;;;;;1.73;91.99;101471.13;5044179;28;20300;-82
2023/03/02 11:12:57;;;;;;;34.00;20.07;;;;;;;1.79;91.79;101468.78;5046873;28;20292;-81
2023/03/02 11:15:26;;;;;;;29.73;20.63;;;;;;;1.90;91.56;101474.25;5048584;28;20245;-82
2023/03/02 11:17:59;;;;;;;31.83;21.00;;;;;;;1.91;91.14;101481.19;5036418;28;20260;-80
2023/03/02 11:20:30;;;;;;;36.67;26.95;;;;;;;1.97;91.46;101487.38;5047546;28;20467;-81